Time;durP1;ratioP1;P1;durP2;ratioP2;P2;SDS_P1;SDS_P2;PMS_P1;PMS_P2;Temp;Humidity;BMP_temperature;BMP_pressure;BME280_temperature;BME280_humidity;BME280_pressure;Samples;Min_cycle;Max_cycle;Signal;HPM_P1;HPM_P2
2024/03/16 00:00:17;;;;;;;0.10;0.10;;;;;;;;;;5019926;28;20413;-72
2024/03/16 00:02:44;;;;;;;0.10;0.10;;;;;;;;;;5005493;28;20253;-73
2024/03/16 00:05:11;;;;;;;0.10;0.10;;;;;;;;;;5013901;28;20208;-73
2024/03/16 00:07:37;;;;;;;0.10;0.10;;;;;;;;;;5006291;28;20219;-74
2024/03/16 00:10:06;;;;;;;0.10;0.10;;;;;;;;;;5022519;28;20228;-73
2024/03/16 00:12:34;;;;;;;0.10;0.10;;;;;;;;;;5000715;28;20250;-74
2024/03/16 00:15:00;;;;;;;0.10;0.10;;;;;;;;;;5026268;28;20206;-73
2024/03/16 00:17:27;;;;;;;0.10;0.10;;;;;;;;;;5000896;28;20549;-74
2024/03/16 00:19:54;;;;;;;0.10;0.10;;;;;;;;;;5026088;28;20239;-73
2024/03/16 00:22:21;;;;;;;0.10;0.10;;;;;;;;;;5001615;28;20242;-74
2024/03/16 00:24:47;;;;;;;0.10;0.10;;;;;;;;;;5026342;28;20235;-73
2024/03/16 00:27:13;;;;;;;0.10;0.10;;;;;;;;;;5002716;28;20259;-75
2024/03/16 00:29:39;;;;;;;0.10;0.10;;;;;;;;;;5026341;28;20399;-73
2024/03/16 00:32:06;;;;;;;0.10;0.10;;;;;;;;;;5003376;28;20305;-73
2024/03/16 00:34:33;;;;;;;0.10;0.10;;;;;;;;;;5025621;28;20402;-75
2024/03/16 00:37:04;;;;;;;0.10;0.10;;;;;;;;;;5004096;28;20243;-73
2024/03/16 00:39:30;;;;;;;0.10;0.10;;;;;;;;;;5024967;28;20223;-74
2024/03/16 00:41:58;;;;;;;0.10;0.10;;;;;;;;;;5004255;28;20492;-73
2024/03/16 00:44:25;;;;;;;0.03;0.03;;;;;;;;;;5024674;28;20206;-74
2024/03/16 00:46:51;;;;;;;0.10;0.10;;;;;;;;;;5004926;28;20240;-74
2024/03/16 00:49:17;;;;;;;0.10;0.10;;;;;;;;;;5023308;28;20213;-73
2024/03/16 00:51:44;;;;;;;0.10;0.10;;;;;;;;;;5005825;28;20244;-74
2024/03/16 00:54:11;;;;;;;0.10;0.10;;;;;;;;;;5022576;28;20208;-74
2024/03/16 00:56:38;;;;;;;0.10;0.10;;;;;;;;;;5006709;28;20266;-73
2024/03/16 00:59:04;;;;;;;0.10;0.10;;;;;;;;;;5021595;28;20259;-74
2024/03/16 01:01:34;;;;;;;0.47;0.47;;;;;;;;;;5007519;28;20248;-73
2024/03/16 01:04:00;;;;;;;0.10;0.10;;;;;;;;;;5020681;28;20209;-74
2024/03/16 01:06:26;;;;;;;0.10;0.10;;;;;;;;;;5008188;28;20265;-74
2024/03/16 01:08:53;;;;;;;0.10;0.10;;;;;;;;;;5019899;28;20399;-74
2024/03/16 01:11:19;;;;;;;0.10;0.10;;;;;;;;;;5008877;28;20334;-73
2024/03/16 01:13:46;;;;;;;0.10;0.10;;;;;;;;;;5018589;28;20263;-74
2024/03/16 01:16:12;;;;;;;0.10;0.10;;;;;;;;;;5009791;28;20501;-74
2024/03/16 01:18:39;;;;;;;0.10;0.10;;;;;;;;;;5017412;28;20254;-73
2024/03/16 01:21:06;;;;;;;0.10;0.10;;;;;;;;;;5010728;28;20499;-74
2024/03/16 01:23:33;;;;;;;0.10;0.10;;;;;;;;;;5015987;28;20207;-74
2024/03/16 01:26:00;;;;;;;0.10;0.10;;;;;;;;;;5011299;28;20628;-74
2024/03/16 01:28:26;;;;;;;0.10;0.10;;;;;;;;;;5015852;28;20400;-75
2024/03/16 01:30:52;;;;;;;0.30;0.30;;;;;;;;;;5012127;28;20557;-74
2024/03/16 01:33:19;;;;;;;0.10;0.10;;;;;;;;;;5014705;28;20249;-74
2024/03/16 01:35:48;;;;;;;0.10;0.10;;;;;;;;;;5013028;28;20257;-75
2024/03/16 01:38:14;;;;;;;0.10;0.10;;;;;;;;;;5013556;28;20245;-74
2024/03/16 01:40:41;;;;;;;0.10;0.10;;;;;;;;;;5013813;28;20254;-73
2024/03/16 01:43:09;;;;;;;0.10;0.10;;;;;;;;;;5013002;28;20251;-73
2024/03/16 01:45:35;;;;;;;0.10;0.10;;;;;;;;;;5014639;28;20477;-73
2024/03/16 01:48:03;;;;;;;0.10;0.10;;;;;;;;;;5011951;28;20206;-73
2024/03/16 01:50:29;;;;;;;0.10;0.10;;;;;;;;;;5014540;28;20295;-74
2024/03/16 01:52:56;;;;;;;0.10;0.10;;;;;;;;;;5011067;28;20250;-73
2024/03/16 01:55:23;;;;;;;0.10;0.10;;;;;;;;;;5014634;28;20515;-74
2024/03/16 01:57:50;;;;;;;0.10;0.10;;;;;;;;;;5010106;28;20274;-74
2024/03/16 02:00:17;;;;;;;0.10;0.10;;;;;;;;;;5014206;28;20272;-73
2024/03/16 02:02:44;;;;;;;0.10;0.10;;;;;;;;;;5009097;28;20206;-74
2024/03/16 02:05:10;;;;;;;0.10;0.10;;;;;;;;;;5018839;28;20210;-73
2024/03/16 02:07:37;;;;;;;0.10;0.10;;;;;;;;;;5008138;28;20219;-73
2024/03/16 02:10:04;;;;;;;0.10;0.10;;;;;;;;;;5024416;28;20417;-74
2024/03/16 02:12:30;;;;;;;0.10;0.10;;;;;;;;;;4998528;28;20372;-73
2024/03/16 02:14:57;;;;;;;0.10;0.10;;;;;;;;;;5024321;28;20405;-73
2024/03/16 02:17:23;;;;;;;0.10;0.10;;;;;;;;;;4999082;28;20454;-74
2024/03/16 02:19:50;;;;;;;0.10;0.10;;;;;;;;;;5024114;28;20423;-74
2024/03/16 02:22:16;;;;;;;0.10;0.10;;;;;;;;;;5000149;28;20242;-73
2024/03/16 02:24:43;;;;;;;0.10;0.10;;;;;;;;;;5024155;28;20280;-73
2024/03/16 02:27:09;;;;;;;0.10;0.10;;;;;;;;;;5000686;28;20472;-74
2024/03/16 02:29:36;;;;;;;0.10;0.10;;;;;;;;;;5023993;28;20471;-73
2024/03/16 02:32:05;;;;;;;0.00;0.00;;;;;;;;;;5001599;28;20585;-74
2024/03/16 02:34:32;;;;;;;0.10;0.10;;;;;;;;;;5023554;28;20207;-74
2024/03/16 02:36:58;;;;;;;0.10;0.10;;;;;;;;;;5001899;28;20447;-73
2024/03/16 02:39:25;;;;;;;0.10;0.10;;;;;;;;;;5021974;28;20298;-73
2024/03/16 02:41:52;;;;;;;0.10;0.10;;;;;;;;;;5002994;28;20488;-74
2024/03/16 02:44:19;;;;;;;0.10;0.10;;;;;;;;;;5021250;28;20205;-73
2024/03/16 02:46:45;;;;;;;0.10;0.10;;;;;;;;;;5003773;28;20275;-73
2024/03/16 02:49:12;;;;;;;0.10;0.10;;;;;;;;;;5020415;28;20277;-73
2024/03/16 02:51:38;;;;;;;0.10;0.10;;;;;;;;;;5004714;28;20416;-73
2024/03/16 02:54:05;;;;;;;0.10;0.10;;;;;;;;;;5019354;28;20452;-73
2024/03/16 02:56:31;;;;;;;0.10;0.10;;;;;;;;;;5005419;28;20361;-74
2024/03/16 02:58:58;;;;;;;0.10;0.10;;;;;;;;;;5018150;28;20314;-74
2024/03/16 03:01:24;;;;;;;0.10;0.10;;;;;;;;;;5006248;28;20253;-74
2024/03/16 03:03:51;;;;;;;0.10;0.10;;;;;;;;;;5017109;28;20237;-74
2024/03/16 03:06:17;;;;;;;0.10;0.10;;;;;;;;;;5007248;28;20286;-74
2024/03/16 03:08:45;;;;;;;0.10;0.10;;;;;;;;;;5016446;28;20205;-73
2024/03/16 03:11:11;;;;;;;0.10;0.10;;;;;;;;;;5007944;28;20433;-73
2024/03/16 03:13:37;;;;;;;0.10;0.10;;;;;;;;;;5015519;28;20208;-74
2024/03/16 03:16:04;;;;;;;0.10;0.10;;;;;;;;;;5008700;28;20266;-73
2024/03/16 03:18:31;;;;;;;0.10;0.10;;;;;;;;;;5014192;28;20272;-73
2024/03/16 03:20:57;;;;;;;0.10;0.10;;;;;;;;;;5009564;28;20448;-73
2024/03/16 03:23:24;;;;;;;0.10;0.10;;;;;;;;;;5013462;28;20434;-74
2024/03/16 03:25:50;;;;;;;0.10;0.10;;;;;;;;;;5010390;28;20271;-73
2024/03/16 03:28:17;;;;;;;0.10;0.10;;;;;;;;;;5012265;28;20206;-74
2024/03/16 03:30:43;;;;;;;0.10;0.10;;;;;;;;;;5011592;28;20481;-75
2024/03/16 03:33:09;;;;;;;0.10;0.10;;;;;;;;;;5011013;28;20222;-74
2024/03/16 03:35:37;;;;;;;0.10;0.10;;;;;;;;;;5012226;28;20253;-73
2024/03/16 03:38:03;;;;;;;0.10;0.10;;;;;;;;;;5009817;28;20234;-74
2024/03/16 03:40:29;;;;;;;0.10;0.10;;;;;;;;;;5012770;28;20487;-74
2024/03/16 03:43:00;;;;;;;0.10;0.10;;;;;;;;;;5009196;28;20206;-73
2024/03/16 03:45:37;;;;;;;0.10;0.10;;;;;;;;;;5012401;28;20225;-74
2024/03/16 03:48:14;;;;;;;0.10;0.10;;;;;;;;;;5010198;28;20203;-73
2024/03/16 03:50:40;;;;;;;0.10;0.10;;;;;;;;;;5012682;28;20243;-74
2024/03/16 03:53:07;;;;;;;0.10;0.10;;;;;;;;;;5010621;28;20208;-74
2024/03/16 03:55:33;;;;;;;0.10;0.10;;;;;;;;;;5012583;28;20272;-74
2024/03/16 03:58:02;;;;;;;0.10;0.10;;;;;;;;;;5009367;28;20205;-73
2024/03/16 04:00:28;;;;;;;0.10;0.10;;;;;;;;;;5012515;28;20229;-74
2024/03/16 04:02:55;;;;;;;0.10;0.10;;;;;;;;;;5008933;28;20278;-72
2024/03/16 04:05:22;;;;;;;0.10;0.10;;;;;;;;;;5012553;28;20457;-73
2024/03/16 04:07:48;;;;;;;0.10;0.10;;;;;;;;;;5007922;28;20394;-73
2024/03/16 04:10:15;;;;;;;0.10;0.10;;;;;;;;;;5012163;28;20267;-73
2024/03/16 04:12:41;;;;;;;0.10;0.10;;;;;;;;;;5007093;28;20415;-74
2024/03/16 04:15:07;;;;;;;0.10;0.10;;;;;;;;;;5022089;28;20215;-73
2024/03/16 04:17:34;;;;;;;0.10;0.10;;;;;;;;;;5012276;28;20212;-73
2024/03/16 04:20:00;;;;;;;0.10;0.10;;;;;;;;;;5022447;28;20476;-74
2024/03/16 04:22:27;;;;;;;0.10;0.10;;;;;;;;;;5013040;28;20243;-73
2024/03/16 04:24:53;;;;;;;0.10;0.10;;;;;;;;;;5022394;28;20272;-72
2024/03/16 04:27:20;;;;;;;0.10;0.10;;;;;;;;;;4997911;28;20249;-72
2024/03/16 04:29:46;;;;;;;0.10;0.10;;;;;;;;;;5022061;28;20206;-74
2024/03/16 04:32:13;;;;;;;0.10;0.10;;;;;;;;;;4998810;28;20314;-74
2024/03/16 04:34:40;;;;;;;0.10;0.10;;;;;;;;;;5022300;28;20219;-74
2024/03/16 04:37:08;;;;;;;0.10;0.10;;;;;;;;;;4999408;28;20447;-73
2024/03/16 04:39:35;;;;;;;0.10;0.10;;;;;;;;;;5022080;28;20231;-73
2024/03/16 04:42:01;;;;;;;0.10;0.10;;;;;;;;;;5000065;28;20242;-74
2024/03/16 04:44:28;;;;;;;0.10;0.10;;;;;;;;;;5021005;28;20236;-75
2024/03/16 04:46:55;;;;;;;0.10;0.10;;;;;;;;;;5001004;28;20244;-73
2024/03/16 04:49:21;;;;;;;0.00;0.00;;;;;;;;;;5020067;28;20272;-73
2024/03/16 04:51:47;;;;;;;0.10;0.10;;;;;;;;;;5001926;28;20303;-73
2024/03/16 04:54:14;;;;;;;0.10;0.10;;;;;;;;;;5019020;28;20283;-74
2024/03/16 04:56:40;;;;;;;0.10;0.10;;;;;;;;;;5002767;28;20257;-73
2024/03/16 04:59:07;;;;;;;0.10;0.10;;;;;;;;;;5020683;28;20237;-72
2024/03/16 05:01:33;;;;;;;0.10;0.10;;;;;;;;;;5007294;28;20504;-74
2024/03/16 05:04:00;;;;;;;0.10;0.10;;;;;;;;;;5020196;28;20241;-73
2024/03/16 05:06:26;;;;;;;0.10;0.10;;;;;;;;;;5008185;28;20462;-74
2024/03/16 05:08:52;;;;;;;0.10;0.10;;;;;;;;;;5019389;28;20217;-74
2024/03/16 05:11:18;;;;;;;0.10;0.10;;;;;;;;;;5008950;28;20244;-73
2024/03/16 05:13:45;;;;;;;0.10;0.10;;;;;;;;;;5018230;28;20213;-73
2024/03/16 05:16:11;;;;;;;0.10;0.10;;;;;;;;;;5009839;28;20247;-73
2024/03/16 05:18:37;;;;;;;0.10;0.10;;;;;;;;;;5017550;28;20295;-73
2024/03/16 05:21:04;;;;;;;0.10;0.10;;;;;;;;;;5010680;28;20244;-73
2024/03/16 05:23:31;;;;;;;0.10;0.10;;;;;;;;;;5016176;28;20212;-73
2024/03/16 05:25:59;;;;;;;0.10;0.10;;;;;;;;;;5011916;28;20266;-73
2024/03/16 05:28:25;;;;;;;0.10;0.10;;;;;;;;;;5015692;28;20270;-72
2024/03/16 05:30:52;;;;;;;0.10;0.10;;;;;;;;;;5012473;28;20493;-73
2024/03/16 05:33:18;;;;;;;0.10;0.10;;;;;;;;;;5014702;28;20248;-73
2024/03/16 05:35:45;;;;;;;0.10;0.10;;;;;;;;;;5013405;28;20483;-73
2024/03/16 05:38:11;;;;;;;0.10;0.10;;;;;;;;;;5013218;28;20224;-73
2024/03/16 05:40:40;;;;;;;0.10;0.10;;;;;;;;;;5013842;28;20255;-73
2024/03/16 05:43:07;;;;;;;0.10;0.10;;;;;;;;;;5012792;28;20209;-73
2024/03/16 05:45:33;;;;;;;0.10;0.10;;;;;;;;;;5014224;28;20248;-72
2024/03/16 05:47:59;;;;;;;0.10;0.10;;;;;;;;;;5012066;28;20292;-73
2024/03/16 05:50:26;;;;;;;0.10;0.10;;;;;;;;;;5014692;28;20657;-73
2024/03/16 05:52:52;;;;;;;0.10;0.10;;;;;;;;;;5010619;28;20274;-73
2024/03/16 05:55:19;;;;;;;0.10;0.10;;;;;;;;;;5014640;28;20298;-73
2024/03/16 05:57:45;;;;;;;0.10;0.10;;;;;;;;;;5009816;28;20205;-73
2024/03/16 06:00:14;;;;;;;0.10;0.10;;;;;;;;;;5021120;28;20471;-72
2024/03/16 06:02:40;;;;;;;0.10;0.10;;;;;;;;;;5008251;28;20295;-73
2024/03/16 06:05:07;;;;;;;0.10;0.10;;;;;;;;;;5024300;28;20208;-73
2024/03/16 06:07:33;;;;;;;0.10;0.10;;;;;;;;;;4998382;28;20246;-73
2024/03/16 06:10:00;;;;;;;0.10;0.10;;;;;;;;;;5023598;28;20293;-74
2024/03/16 06:12:27;;;;;;;0.10;0.10;;;;;;;;;;4998963;28;20242;-73
2024/03/16 06:14:54;;;;;;;0.10;0.10;;;;;;;;;;5024098;28;20388;-71
2024/03/16 06:17:20;;;;;;;0.10;0.10;;;;;;;;;;4999699;28;20423;-73
2024/03/16 06:19:49;;;;;;;0.10;0.10;;;;;;;;;;5024065;28;20229;-73
2024/03/16 06:22:16;;;;;;;0.10;0.10;;;;;;;;;;5000456;28;20245;-74
2024/03/16 06:24:42;;;;;;;0.10;0.10;;;;;;;;;;5023760;28;20233;-73
2024/03/16 06:27:11;;;;;;;0.10;0.10;;;;;;;;;;5000896;28;20305;-73
2024/03/16 06:29:39;;;;;;;0.10;0.10;;;;;;;;;;5023766;28;20297;-73
2024/03/16 06:32:06;;;;;;;0.10;0.10;;;;;;;;;;5001601;28;20250;-73
2024/03/16 06:34:32;;;;;;;0.17;0.17;;;;;;;;;;5023624;28;20259;-73
2024/03/16 06:36:59;;;;;;;0.10;0.10;;;;;;;;;;5001846;28;20263;-73
2024/03/16 06:39:26;;;;;;;0.10;0.10;;;;;;;;;;5022464;28;20207;-73
2024/03/16 06:41:52;;;;;;;0.10;0.10;;;;;;;;;;5002976;28;20250;-73
2024/03/16 06:44:18;;;;;;;0.10;0.10;;;;;;;;;;5021197;28;20236;-73
2024/03/16 06:46:45;;;;;;;0.10;0.10;;;;;;;;;;5003854;28;20624;-73
2024/03/16 06:49:16;;;;;;;0.10;0.10;;;;;;;;;;5020229;28;20547;-73
2024/03/16 06:51:42;;;;;;;0.10;0.10;;;;;;;;;;5004747;28;20249;-73
2024/03/16 06:54:09;;;;;;;0.10;0.10;;;;;;;;;;5019899;28;20207;-73
2024/03/16 06:56:35;;;;;;;0.10;0.10;;;;;;;;;;5004998;28;20646;-74
2024/03/16 06:59:02;;;;;;;0.10;0.10;;;;;;;;;;5018975;28;20213;-73
2024/03/16 07:01:28;;;;;;;0.10;0.10;;;;;;;;;;5005669;28;20499;-73
2024/03/16 07:03:55;;;;;;;0.10;0.10;;;;;;;;;;5017944;28;20257;-73
2024/03/16 07:06:23;;;;;;;0.10;0.10;;;;;;;;;;5006635;28;20307;-73
2024/03/16 07:08:49;;;;;;;0.10;0.10;;;;;;;;;;5016890;28;20206;-72
2024/03/16 07:11:18;;;;;;;0.10;0.10;;;;;;;;;;5006936;28;20247;-72
2024/03/16 07:13:45;;;;;;;0.10;0.10;;;;;;;;;;5016143;28;20211;-73
2024/03/16 07:16:11;;;;;;;0.10;0.10;;;;;;;;;;5007689;28;20306;-72
2024/03/16 07:18:38;;;;;;;0.10;0.10;;;;;;;;;;5015435;28;20211;-73
2024/03/16 07:21:04;;;;;;;0.10;0.10;;;;;;;;;;5007882;28;20306;-72
2024/03/16 07:23:31;;;;;;;0.10;0.10;;;;;;;;;;5014359;28;20461;-73
2024/03/16 07:25:58;;;;;;;0.20;0.20;;;;;;;;;;5009579;28;20606;-72
2024/03/16 07:28:24;;;;;;;0.10;0.10;;;;;;;;;;5013370;28;20286;-72
2024/03/16 07:30:55;;;;;;;0.20;0.20;;;;;;;;;;5010512;28;20488;-73
2024/03/16 07:33:21;;;;;;;0.10;0.10;;;;;;;;;;5012668;28;20208;-72
2024/03/16 07:35:49;;;;;;;0.10;0.10;;;;;;;;;;5010805;28;20527;-72
2024/03/16 07:38:16;;;;;;;0.10;0.10;;;;;;;;;;5011772;28;20290;-72
2024/03/16 07:40:45;;;;;;;0.10;0.10;;;;;;;;;;4994739;28;20245;-72
2024/03/16 07:43:13;;;;;;;0.40;0.30;;;;;;;;;;5011466;28;20238;-72
2024/03/16 07:45:42;;;;;;;0.27;0.27;;;;;;;;;;5011567;28;20272;-72
2024/03/16 07:48:09;;;;;;;0.77;0.63;;;;;;;;;;5011153;28;20240;-72
2024/03/16 07:50:35;;;;;;;0.23;0.23;;;;;;;;;;5012305;28;20493;-72
2024/03/16 07:53:03;;;;;;;0.10;0.10;;;;;;;;;;5010031;28;20219;-72
2024/03/16 07:55:29;;;;;;;0.10;0.10;;;;;;;;;;5012345;28;20242;-73
2024/03/16 07:57:56;;;;;;;0.10;0.10;;;;;;;;;;5008963;28;20282;-72
2024/03/16 08:00:22;;;;;;;1.03;1.03;;;;;;;;;;5012421;28;20408;-72
2024/03/16 08:02:49;;;;;;;1.00;0.77;;;;;;;;;;5008206;28;20238;-73
2024/03/16 08:05:15;;;;;;;0.10;0.10;;;;;;;;;;5012605;28;20212;-73
2024/03/16 08:07:42;;;;;;;0.10;0.10;;;;;;;;;;5007454;28;20295;-73
2024/03/16 08:10:09;;;;;;;0.10;0.10;;;;;;;;;;5022373;28;20233;-73
2024/03/16 08:12:36;;;;;;;0.10;0.10;;;;;;;;;;5016002;28;20579;-73
2024/03/16 08:15:02;;;;;;;0.60;0.27;;;;;;;;;;5041966;28;20277;-74
2024/03/16 08:17:29;;;;;;;0.10;0.10;;;;;;;;;;5032830;28;20589;-71
2024/03/16 08:19:55;;;;;;;0.30;0.30;;;;;;;;;;5042034;28;20242;-71
2024/03/16 08:22:23;;;;;;;0.10;0.10;;;;;;;;;;5033353;28;20257;-71
2024/03/16 08:24:49;;;;;;;0.10;0.10;;;;;;;;;;5042296;28;20261;-70
2024/03/16 08:27:16;;;;;;;0.10;0.10;;;;;;;;;;5034283;28;20508;-71
2024/03/16 08:29:42;;;;;;;0.10;0.10;;;;;;;;;;5042119;28;20207;-71
2024/03/16 08:32:11;;;;;;;0.30;0.30;;;;;;;;;;5036750;28;20313;-71
2024/03/16 08:34:38;;;;;;;0.10;0.10;;;;;;;;;;5046061;28;20205;-72
2024/03/16 08:37:04;;;;;;;0.13;0.13;;;;;;;;;;5038504;28;20318;-71
2024/03/16 08:39:33;;;;;;;0.10;0.10;;;;;;;;;;5045619;28;20213;-71
2024/03/16 08:41:59;;;;;;;0.10;0.10;;;;;;;;;;5038911;28;20249;-71
2024/03/16 08:44:28;;;;;;;0.30;0.20;;;;;;;;;;5045736;28;20537;-71
2024/03/16 08:46:54;;;;;;;0.10;0.10;;;;;;;;;;5038756;28;20242;-71
2024/03/16 08:49:20;;;;;;;0.10;0.10;;;;;;;;;;5045408;28;20208;-71
2024/03/16 08:51:47;;;;;;;0.10;0.10;;;;;;;;;;5038241;28;20321;-71
2024/03/16 08:54:13;;;;;;;0.30;0.20;;;;;;;;;;5045250;28;20306;-71
2024/03/16 08:56:40;;;;;;;0.05;0.05;;;;;;;;;;5038431;28;20247;-71
2024/03/16 08:59:06;;;;;;;0.10;0.10;;;;;;;;;;5045412;28;20251;-71
2024/03/16 09:01:35;;;;;;;0.10;0.10;;;;;;;;;;5038083;28;20340;-72
2024/03/16 09:04:02;;;;;;;0.20;0.20;;;;;;;;;;5045052;28;20206;-72
2024/03/16 09:06:29;;;;;;;0.10;0.10;;;;;;;;;;5038122;28;20242;-71
2024/03/16 09:08:58;;;;;;;7.97;1.30;;;;;;;;;;5045157;28;20206;-71
2024/03/16 09:11:24;;;;;;;0.10;0.10;;;;;;;;;;5038303;28;20259;-71
2024/03/16 09:13:51;;;;;;;0.20;0.20;;;;;;;;;;5045024;28;20275;-71
2024/03/16 09:16:17;;;;;;;0.10;0.10;;;;;;;;;;5037726;28;20241;-71
2024/03/16 09:18:45;;;;;;;0.30;0.30;;;;;;;;;;5045194;28;20233;-71
2024/03/16 09:21:11;;;;;;;0.10;0.10;;;;;;;;;;5037912;28;20233;-71
2024/03/16 09:23:37;;;;;;;0.20;0.20;;;;;;;;;;5045156;28;20566;-71
2024/03/16 09:26:04;;;;;;;0.10;0.10;;;;;;;;;;5037687;28;20258;-71
2024/03/16 09:28:31;;;;;;;0.10;0.10;;;;;;;;;;5045070;28;20213;-72
2024/03/16 09:30:57;;;;;;;0.33;0.33;;;;;;;;;;5037763;28;20289;-71
2024/03/16 09:33:25;;;;;;;0.30;0.13;;;;;;;;;;5044938;28;20214;-71
2024/03/16 09:35:53;;;;;;;0.10;0.10;;;;;;;;;;5038099;28;20523;-72
2024/03/16 09:38:19;;;;;;;0.20;0.20;;;;;;;;;;5044469;28;20218;-71
2024/03/16 09:40:46;;;;;;;0.50;0.50;;;;;;;;;;5037582;28;20254;-72
2024/03/16 09:43:13;;;;;;;0.10;0.10;;;;;;;;;;5043855;28;20205;-72
2024/03/16 09:45:39;;;;;;;0.10;0.10;;;;;;;;;;5037584;28;20309;-71
2024/03/16 09:48:06;;;;;;;0.10;0.10;;;;;;;;;;5044544;28;20208;-71
2024/03/16 09:50:33;;;;;;;0.17;0.17;;;;;;;;;;5037223;28;20475;-71
2024/03/16 09:52:59;;;;;;;0.10;0.10;;;;;;;;;;5044238;28;20247;-71
2024/03/16 09:55:27;;;;;;;0.10;0.10;;;;;;;;;;5036402;28;20207;-72
2024/03/16 09:57:53;;;;;;;0.10;0.10;;;;;;;;;;5044449;28;20280;-72
2024/03/16 10:00:21;;;;;;;0.10;0.10;;;;;;;;;;5035260;28;20222;-71
2024/03/16 10:02:47;;;;;;;0.10;0.10;;;;;;;;;;5044275;28;20523;-72
2024/03/16 10:05:17;;;;;;;0.10;0.10;;;;;;;;;;5034513;28;20252;-71
2024/03/16 10:07:43;;;;;;;0.10;0.10;;;;;;;;;;5044318;28;20204;-72
2024/03/16 10:10:10;;;;;;;0.10;0.10;;;;;;;;;;5036348;28;20408;-71
2024/03/16 10:12:38;;;;;;;0.10;0.10;;;;;;;;;;5044058;28;20224;-71
2024/03/16 10:15:09;;;;;;;0.10;0.10;;;;;;;;;;5043585;28;20260;-73
2024/03/16 10:17:36;;;;;;;0.30;0.30;;;;;;;;;;4998930;28;20209;-71
2024/03/16 10:20:05;;;;;;;0.10;0.10;;;;;;;;;;5023887;28;20209;-71
2024/03/16 10:22:32;;;;;;;0.10;0.10;;;;;;;;;;4998674;28;20509;-72
2024/03/16 10:24:59;;;;;;;0.10;0.10;;;;;;;;;;5023842;28;20275;-71
2024/03/16 10:27:25;;;;;;;0.10;0.10;;;;;;;;;;4998903;28;20440;-72
2024/03/16 10:29:52;;;;;;;0.10;0.10;;;;;;;;;;5023715;28;20206;-72
2024/03/16 10:32:20;;;;;;;0.10;0.10;;;;;;;;;;4999532;28;20301;-72
2024/03/16 10:34:47;;;;;;;0.10;0.10;;;;;;;;;;5023975;28;20212;-72
2024/03/16 10:37:13;;;;;;;0.10;0.10;;;;;;;;;;4999848;28;20241;-72
2024/03/16 10:39:40;;;;;;;0.10;0.10;;;;;;;;;;5023871;28;20277;-72
2024/03/16 10:42:08;;;;;;;0.10;0.10;;;;;;;;;;5000789;28;20238;-72
2024/03/16 10:44:34;;;;;;;0.10;0.10;;;;;;;;;;5023682;28;20516;-71
2024/03/16 10:47:05;;;;;;;0.10;0.10;;;;;;;;;;5001260;28;20305;-72
2024/03/16 10:49:31;;;;;;;0.10;0.10;;;;;;;;;;5023067;28;20233;-72
2024/03/16 10:51:58;;;;;;;0.03;0.03;;;;;;;;;;5001796;28;20260;-72
2024/03/16 10:54:24;;;;;;;0.10;0.10;;;;;;;;;;5021611;28;20244;-73
2024/03/16 10:56:51;;;;;;;0.10;0.10;;;;;;;;;;5002028;28;20244;-72
2024/03/16 10:59:31;;;;;;;0.10;0.10;;;;;;;;;;5021194;28;20524;-73
2024/03/16 11:01:58;;;;;;;0.90;0.90;;;;;;;;;;5001935;28;20247;-72
2024/03/16 11:04:24;;;;;;;0.10;0.10;;;;;;;;;;5021848;28;20207;-73
2024/03/16 11:06:52;;;;;;;0.10;0.10;;;;;;;;;;5002497;28;20241;-72
2024/03/16 11:09:19;;;;;;;0.10;0.10;;;;;;;;;;5021111;28;20505;-72
2024/03/16 11:11:46;;;;;;;0.00;0.00;;;;;;;;;;5003428;28;20242;-72
2024/03/16 11:14:13;;;;;;;0.10;0.10;;;;;;;;;;5020137;28;20231;-72
2024/03/16 11:16:43;;;;;;;0.08;0.08;;;;;;;;;;5003839;28;20242;-72
2024/03/16 11:19:11;;;;;;;0.10;0.10;;;;;;;;;;5019880;28;20221;-72
2024/03/16 11:21:38;;;;;;;0.10;0.10;;;;;;;;;;5004014;28;20305;-72
2024/03/16 11:24:05;;;;;;;0.00;0.00;;;;;;;;;;5019094;28;20259;-73
2024/03/16 11:26:32;;;;;;;0.10;0.10;;;;;;;;;;5004893;28;20238;-72
2024/03/16 11:29:09;;;;;;;0.03;0.03;;;;;;;;;;5017966;28;20297;-72
2024/03/16 11:31:36;;;;;;;0.10;0.10;;;;;;;;;;5004816;28;20284;-72
2024/03/16 11:34:03;;;;;;;0.10;0.10;;;;;;;;;;5018676;28;20542;-72
2024/03/16 11:36:29;;;;;;;0.00;0.00;;;;;;;;;;5004956;28;20312;-72
2024/03/16 11:38:55;;;;;;;0.10;0.10;;;;;;;;;;5017288;28;20268;-72
2024/03/16 11:41:21;;;;;;;0.10;0.10;;;;;;;;;;5005836;28;20283;-72
2024/03/16 11:43:48;;;;;;;0.17;0.17;;;;;;;;;;5016398;28;20401;-72
2024/03/16 11:46:15;;;;;;;0.10;0.10;;;;;;;;;;5006700;28;20243;-72
2024/03/16 11:48:42;;;;;;;0.10;0.10;;;;;;;;;;5015769;28;20208;-72
2024/03/16 11:51:10;;;;;;;0.10;0.10;;;;;;;;;;5007604;28;20244;-73
2024/03/16 11:53:36;;;;;;;0.10;0.10;;;;;;;;;;5014561;28;20207;-72
2024/03/16 11:56:02;;;;;;;0.08;0.08;;;;;;;;;;5008402;28;20259;-72
2024/03/16 11:58:28;;;;;;;1.00;1.00;;;;;;;;;;5013790;28;20233;-72
2024/03/16 12:00:54;;;;;;;0.00;0.00;;;;;;;;;;5010071;28;20405;-72
2024/03/16 12:03:21;;;;;;;0.00;0.00;;;;;;;;;;5012033;28;20212;-72
2024/03/16 12:05:47;;;;;;;0.10;0.10;;;;;;;;;;5010495;28;20301;-72
2024/03/16 12:08:13;;;;;;;0.10;0.10;;;;;;;;;;5015152;28;20346;-72
2024/03/16 12:10:39;;;;;;;0.00;0.00;;;;;;;;;;5015461;28;20251;-72
2024/03/16 12:13:06;;;;;;;0.00;0.00;;;;;;;;;;5014691;28;20236;-73
2024/03/16 12:15:32;;;;;;;0.10;0.10;;;;;;;;;;5016210;28;20249;-73
2024/03/16 12:17:58;;;;;;;0.10;0.10;;;;;;;;;;5013430;28;20219;-72
2024/03/16 12:20:24;;;;;;;0.05;0.05;;;;;;;;;;5016420;28;20209;-72
2024/03/16 12:22:50;;;;;;;0.10;0.10;;;;;;;;;;5012116;28;20233;-72
2024/03/16 12:25:16;;;;;;;0.10;0.10;;;;;;;;;;5015851;28;20214;-73
2024/03/16 12:27:42;;;;;;;0.10;0.10;;;;;;;;;;5011258;28;20254;-72
2024/03/16 12:30:09;;;;;;;0.10;0.10;;;;;;;;;;5023714;28;20399;-71
2024/03/16 12:32:35;;;;;;;0.10;0.10;;;;;;;;;;5009889;28;20288;-72
2024/03/16 12:35:01;;;;;;;0.10;0.10;;;;;;;;;;5026283;28;20225;-72
2024/03/16 12:37:26;;;;;;;0.10;0.10;;;;;;;;;;5000472;28;20313;-72
2024/03/16 12:39:54;;;;;;;0.10;0.10;;;;;;;;;;5026053;28;20237;-71
2024/03/16 12:42:19;;;;;;;0.10;0.10;;;;;;;;;;5001361;28;20243;-72
2024/03/16 12:44:46;;;;;;;0.10;0.10;;;;;;;;;;5026150;28;20404;-70
2024/03/16 12:47:12;;;;;;;0.10;0.10;;;;;;;;;;5002089;28;20244;-74
2024/03/16 12:49:38;;;;;;;0.10;0.10;;;;;;;;;;5026084;28;20207;-70
2024/03/16 12:52:06;;;;;;;0.10;0.10;;;;;;;;;;5003132;28;20238;-72
2024/03/16 12:54:33;;;;;;;0.10;0.10;;;;;;;;;;5025308;28;20208;-72
2024/03/16 12:56:58;;;;;;;0.10;0.10;;;;;;;;;;5003821;28;20556;-72
2024/03/16 12:59:24;;;;;;;0.10;0.10;;;;;;;;;;5024297;28;20207;-71
2024/03/16 13:01:50;;;;;;;0.10;0.10;;;;;;;;;;5004598;28;20311;-71
2024/03/16 13:04:18;;;;;;;0.10;0.10;;;;;;;;;;5022934;28;20378;-71
2024/03/16 13:06:44;;;;;;;0.10;0.10;;;;;;;;;;5006201;28;20272;-71
2024/03/16 13:09:13;;;;;;;0.10;0.10;;;;;;;;;;5021606;28;20205;-72
2024/03/16 13:11:38;;;;;;;0.10;0.10;;;;;;;;;;5006416;28;20309;-71
2024/03/16 13:14:05;;;;;;;0.10;0.10;;;;;;;;;;5021303;28;20207;-72
2024/03/16 13:16:32;;;;;;;0.10;0.10;;;;;;;;;;5007339;28;20502;-71
2024/03/16 13:18:59;;;;;;;0.50;0.50;;;;;;;;;;5019166;28;20206;-71
2024/03/16 13:21:24;;;;;;;0.10;0.10;;;;;;;;;;5007836;28;20248;-67
2024/03/16 13:23:50;;;;;;;0.33;0.27;;;;;;;;;;5018988;28;20252;-72
2024/03/16 13:26:17;;;;;;;0.10;0.10;;;;;;;;;;5008902;28;20243;-71
2024/03/16 13:28:43;;;;;;;0.10;0.10;;;;;;;;;;5018264;28;20285;-71
2024/03/16 13:31:09;;;;;;;0.10;0.10;;;;;;;;;;5009964;28;20248;-72
2024/03/16 13:33:35;;;;;;;0.13;0.13;;;;;;;;;;5017130;28;20214;-71
2024/03/16 13:36:01;;;;;;;0.10;0.10;;;;;;;;;;5010806;28;20270;-71
2024/03/16 13:38:27;;;;;;;0.10;0.10;;;;;;;;;;5015382;28;20513;-71
2024/03/16 13:40:53;;;;;;;0.10;0.10;;;;;;;;;;5011997;28;20245;-71
2024/03/16 13:43:20;;;;;;;0.10;0.10;;;;;;;;;;5014349;28;20259;-71
2024/03/16 13:45:46;;;;;;;0.10;0.10;;;;;;;;;;5012835;28;20275;-71
2024/03/16 13:48:12;;;;;;;0.10;0.10;;;;;;;;;;5013713;28;20343;-71
2024/03/16 13:50:39;;;;;;;0.10;0.10;;;;;;;;;;5014035;28;20240;-71
2024/03/16 13:53:05;;;;;;;0.10;0.10;;;;;;;;;;5012372;28;20272;-72
2024/03/16 13:55:31;;;;;;;0.10;0.10;;;;;;;;;;5014517;28;20243;-72
2024/03/16 13:57:58;;;;;;;0.10;0.10;;;;;;;;;;5011359;28;20515;-71
2024/03/16 14:00:25;;;;;;;0.10;0.10;;;;;;;;;;5014644;28;20562;-71
2024/03/16 14:02:52;;;;;;;0.10;0.10;;;;;;;;;;5010500;28;20446;-72
2024/03/16 14:05:19;;;;;;;1.03;1.03;;;;;;;;;;5014302;28;20232;-72
2024/03/16 14:07:47;;;;;;;0.10;0.10;;;;;;;;;;5009479;28;20228;-71
2024/03/16 14:10:12;;;;;;;0.10;0.10;;;;;;;;;;5014050;28;20242;-72
2024/03/16 14:12:39;;;;;;;0.10;0.10;;;;;;;;;;5008698;28;20274;-71
2024/03/16 14:15:04;;;;;;;0.10;0.10;;;;;;;;;;5024378;28;20296;-72
2024/03/16 14:17:31;;;;;;;0.10;0.10;;;;;;;;;;4998241;28;20245;-72
2024/03/16 14:19:57;;;;;;;0.10;0.10;;;;;;;;;;5024314;28;20230;-71
2024/03/16 14:22:23;;;;;;;0.10;0.10;;;;;;;;;;4999023;28;20233;-71
2024/03/16 14:24:49;;;;;;;0.97;0.60;;;;;;;;;;5024191;28;20282;-72
2024/03/16 14:27:15;;;;;;;0.10;0.10;;;;;;;;;;4999954;28;20424;-71
2024/03/16 14:29:41;;;;;;;0.10;0.10;;;;;;;;;;5023549;28;20340;-71
2024/03/16 14:32:07;;;;;;;0.10;0.10;;;;;;;;;;5000764;28;20253;-69
2024/03/16 14:34:33;;;;;;;0.10;0.10;;;;;;;;;;5023705;28;20246;-70
2024/03/16 14:36:59;;;;;;;0.10;0.10;;;;;;;;;;5001709;28;20459;-69
2024/03/16 14:39:27;;;;;;;0.10;0.10;;;;;;;;;;5022839;28;20240;-71